No 32takemaru — JG5746 — position and weather

sailwx.info

Track history (hours):
 
Tides and Currents Weather Stations Pressure Air Temp Water Temp Dewpoint Dewpoint Depression Visibility Wind Speed Wind Dir Waves Ship Positions

No 32takemaru

Last reported at 2018-Jun-20 06:00 UTC. Time now 2018-Jun-20 08:58 UTC.
Position N 34°39' E 135°28'.

Length 38 m; draft 2.8 m.

Type: Tug. MMSI: 431000341.

Date/timePositionNaut miles runAvg speedWind from/ knotsBaromVisibWave heightAir tempDewpointWater temp
2018-Jun-20 06:00N 34°39' E 135°28'2 3.9
2018-Jun-20 05:30N 34°39' E 135°25'1 2.0
2018-Jun-20 05:00N 34°39' E 135°24'2 3.8
2018-Jun-20 04:30N 34°39' E 135°26'1 0.3
2018-Jun-19 23:45N 34°39' E 135°28'2 6.9
2018-Jun-19 23:30N 34°39' E 135°26'1 2.3
2018-Jun-19 23:00N 34°39' E 135°24'1 2.2
2018-Jun-19 22:30N 34°40' E 135°25'1 1.3
2018-Jun-19 22:00N 34°39' E 135°24'0 0.2
2018-Jun-19 21:29N 34°39' E 135°24'2 4.1
2018-Jun-19 21:00N 34°39' E 135°27'1 1.9
2018-Jun-19 20:23N 34°39' E 135°28'0 0.0
2018-Jun-19 19:59N 34°39' E 135°28'0 0.0
2018-Jun-19 19:21N 34°39' E 135°28'0 0.0
2018-Jun-19 19:00N 34°39' E 135°28'0 0.0
2018-Jun-19 18:16N 34°39' E 135°28'0 0.0
2018-Jun-19 17:42N 34°39' E 135°28'0 0.0
2018-Jun-19 17:12N 34°39' E 135°28'0 0.0
2018-Jun-19 16:59N 34°39' E 135°28'0 0.0
2018-Jun-19 16:28N 34°39' E 135°28'0 0.0
2018-Jun-19 15:51N 34°39' E 135°28'0 0.0
2018-Jun-19 15:19N 34°39' E 135°28'0 0.0
2018-Jun-19 14:48N 34°39' E 135°28'0 0.0
2018-Jun-19 14:30N 34°39' E 135°28'2 4.1
2018-Jun-19 14:00N 34°39' E 135°26'1 2.4
2018-Jun-19 13:30N 34°39' E 135°24'1 1.1
2018-Jun-19 13:00N 34°39' E 135°25'2 3.2
2018-Jun-19 12:30N 34°39' E 135°27'1 0.7
2018-Jun-19 10:46N 34°39' E 135°28'0 0.0
2018-Jun-19 10:08N 34°39' E 135°28'0 0.0
2018-Jun-19 09:39N 34°39' E 135°28'0 0.0
2018-Jun-19 07:33N 34°39' E 135°28'0 4.9
2018-Jun-19 07:30N 34°39' E 135°28'0 0.0
2018-Jun-18 22:57N 34°39' E 135°28'1 3.0
2018-Jun-18 22:29N 34°39' E 135°26'1 3.0
2018-Jun-18 22:00N 34°39' E 135°24'1 1.8
2018-Jun-18 21:30N 34°39' E 135°26'0 0.3
2018-Jun-18 21:00N 34°39' E 135°26'0 0.1
2018-Jun-18 20:28N 34°39' E 135°26'2 3.1
2018-Jun-18 19:49N 34°39' E 135°28'0 0.0
2018-Jun-18 18:45N 34°39' E 135°28'0 0.0
2018-Jun-18 18:28N 34°39' E 135°28'0 0.0
2018-Jun-18 17:48N 34°39' E 135°28'0 0.0
2018-Jun-18 17:27N 34°39' E 135°28'0 0.0
2018-Jun-18 16:58N 34°39' E 135°28'0 0.0
2018-Jun-18 14:36N 34°39' E 135°28'0 0.0
2018-Jun-18 14:20N 34°39' E 135°28'0 0.0
2018-Jun-18 13:41N 34°39' E 135°28'0 0.0
2018-Jun-18 12:54N 34°39' E 135°28'0 0.5
2018-Jun-18 12:29N 34°39' E 135°28'5 9.4
2018-Jun-18 11:59N 34°36' E 135°23'511.0
2018-Jun-18 11:30N 34°31' E 135°24'0 0.1
2018-Jun-18 10:47N 34°31' E 135°23'0 0.1
2018-Jun-18 07:43N 34°31' E 135°24'1 2.5
2018-Jun-18 07:28N 34°31' E 135°23'0 0.3
2018-Jun-18 06:45N 34°31' E 135°23'1 1.3
2018-Jun-18 06:17N 34°31' E 135°23'2 5.7
2018-Jun-18 05:59N 34°33' E 135°22'0 1.0
2018-Jun-18 05:30N 34°33' E 135°22'3 5.5
2018-Jun-18 05:00N 34°36' E 135°22'4 8.9
2018-Jun-18 04:30N 34°39' E 135°26'2 0.3
2018-Jun-17 23:00N 34°39' E 135°28'2 4.0
2018-Jun-17 22:30N 34°39' E 135°26'1 2.8
2018-Jun-17 22:00N 34°39' E 135°24'1 1.5
2018-Jun-17 21:30N 34°38' E 135°24'1 1.2
2018-Jun-17 21:00N 34°38' E 135°24'3 6.1
2018-Jun-17 20:30N 34°39' E 135°28'0 0.0
2018-Jun-17 08:23N 34°39' E 135°28'2 4.3
2018-Jun-17 08:00N 34°39' E 135°26'1 3.0
2018-Jun-17 07:30N 34°39' E 135°24'0 0.9
2018-Jun-17 07:00N 34°40' E 135°24'0 0.0
2018-Jun-17 06:31N 34°40' E 135°24'0 0.0
2018-Jun-17 06:00N 34°40' E 135°24'0 0.0
2018-Jun-17 05:31N 34°40' E 135°24'0 0.0
2018-Jun-17 05:00N 34°40' E 135°24'0 0.0
2018-Jun-17 04:30N 34°40' E 135°24'1 2.8
2018-Jun-17 04:00N 34°38' E 135°24'2 3.2
2018-Jun-17 03:30N 34°39' E 135°25'2 0.8
2018-Jun-17 00:37N 34°39' E 135°28'0 0.0
2018-Jun-17 00:23N 34°39' E 135°28'0 0.0
2018-Jun-16 23:59N 34°39' E 135°28'0 0.0
2018-Jun-16 23:17N 34°39' E 135°28'0 0.0
2018-Jun-16 22:54N 34°39' E 135°28'0 0.0
2018-Jun-16 21:50N 34°39' E 135°28'0 0.0
2018-Jun-16 21:23N 34°39' E 135°28'0 0.0
2018-Jun-16 16:53N 34°39' E 135°28'2 4.0
2018-Jun-16 16:30N 34°38' E 135°27'1 0.2
2018-Jun-16 13:02N 34°38' E 135°27'1 9.2
2018-Jun-16 12:58N 34°39' E 135°26'2 3.9
2018-Jun-16 12:30N 34°39' E 135°24'1 2.7
2018-Jun-16 12:00N 34°39' E 135°26'2 0.2
2018-Jun-16 03:29N 34°39' E 135°28'0 0.0
2018-Jun-16 02:34N 34°39' E 135°28'0 0.0
2018-Jun-16 02:24N 34°39' E 135°28'0 0.0
2018-Jun-16 01:55N 34°39' E 135°28'0 0.0
2018-Jun-16 01:27N 34°39' E 135°28'0 0.0
2018-Jun-16 00:59N 34°39' E 135°28'0 0.0
2018-Jun-16 00:14N 34°39' E 135°28'0 0.0
2018-Jun-15 23:57N 34°39' E 135°28'0 0.0
2018-Jun-15 23:08N 34°39' E 135°28'1 6.1
2018-Jun-15 22:59N 34°39' E 135°27'2 4.7
2018-Jun-15 22:30N 34°38' E 135°24'1 1.8
2018-Jun-15 22:00N 34°38' E 135°23'0 0.6
2018-Jun-15 21:30N 34°38' E 135°23'4 7.6
2018-Jun-15 20:59N 34°39' E 135°28'0 0.0
2018-Jun-15 01:42N 34°39' E 135°28'210.0
2018-Jun-15 01:30N 34°39' E 135°25'5 9.2
2018-Jun-15 00:59N 34°34' E 135°23'1 2.9
2018-Jun-15 00:31N 34°33' E 135°25'1 2.5
2018-Jun-15 00:00N 34°33' E 135°26'2 3.7
2018-Jun-14 23:28N 34°33' E 135°24'1 2.2
2018-Jun-14 22:59N 34°34' E 135°23'2 3.3
2018-Jun-14 22:30N 34°35' E 135°23'4 8.5
2018-Jun-14 22:00N 34°39' E 135°26'2 2.2
2018-Jun-14 21:15N 34°39' E 135°28'0 0.0
2018-Jun-14 20:45N 34°39' E 135°28'0 0.0
2018-Jun-14 18:38N 34°39' E 135°28'0 0.0
2018-Jun-14 18:21N 34°39' E 135°28'0 0.0
2018-Jun-14 17:55N 34°39' E 135°28'0 0.0
2018-Jun-14 17:26N 34°39' E 135°28'0 0.0
2018-Jun-14 16:57N 34°39' E 135°28'0 0.0
2018-Jun-14 16:30N 34°39' E 135°28'0 0.0
2018-Jun-14 15:26N 34°39' E 135°28'0 0.0
2018-Jun-14 14:59N 34°39' E 135°28'0 0.0
2018-Jun-14 13:48N 34°39' E 135°28'0 0.0
2018-Jun-14 13:16N 34°39' E 135°28'0 0.0
2018-Jun-14 12:53N 34°39' E 135°28'0 0.0
2018-Jun-14 12:07N 34°39' E 135°28'0 0.0
2018-Jun-14 11:59N 34°39' E 135°28'0 0.0
2018-Jun-14 11:20N 34°39' E 135°28'0 0.1
2018-Jun-14 09:04N 34°39' E 135°28'1 8.3
2018-Jun-14 08:59N 34°39' E 135°27'1 2.5
2018-Jun-14 08:30N 34°39' E 135°25'1 2.2
2018-Jun-14 08:00N 34°39' E 135°24'2 3.9
2018-Jun-14 07:30N 34°39' E 135°27'1 0.1
2018-Jun-13 21:49N 34°39' E 135°28'3 9.0
2018-Jun-13 21:30N 34°39' E 135°25'1 1.2
2018-Jun-13 21:00N 34°39' E 135°24'0 0.0
2018-Jun-13 20:30N 34°39' E 135°24'3 0.2
2018-Jun-13 05:48N 34°39' E 135°28'2 7.7
2018-Jun-13 05:29N 34°39' E 135°25'1 2.6
2018-Jun-13 04:59N 34°38' E 135°24'0 0.3
2018-Jun-13 04:30N 34°38' E 135°24'0 0.3
2018-Jun-13 04:00N 34°38' E 135°24'2 4.6
2018-Jun-13 03:30N 34°39' E 135°26'1 0.3
2018-Jun-12 22:54N 34°39' E 135°28'2 4.9
2018-Jun-12 22:30N 34°39' E 135°26'1 2.0
2018-Jun-12 22:00N 34°39' E 135°24'0 0.3
2018-Jun-12 21:30N 34°39' E 135°24'3 6.0
2018-Jun-12 21:00N 34°39' E 135°28'0 0.0
2018-Jun-12 20:29N 34°39' E 135°28'0 0.0
2018-Jun-12 19:57N 34°39' E 135°28'0 0.0
2018-Jun-12 19:30N 34°39' E 135°28'0 0.0
2018-Jun-12 19:00N 34°39' E 135°28'0 0.0
2018-Jun-12 18:30N 34°39' E 135°28'0 0.0
2018-Jun-12 18:00N 34°39' E 135°28'0 0.0
2018-Jun-12 17:29N 34°39' E 135°28'0 0.0
2018-Jun-12 17:00N 34°39' E 135°28'0 0.0
2018-Jun-12 16:30N 34°39' E 135°28'0 0.0
2018-Jun-12 16:00N 34°39' E 135°28'0 0.0
2018-Jun-12 15:30N 34°39' E 135°28'0 0.0
2018-Jun-12 14:58N 34°39' E 135°28'0 0.0
2018-Jun-12 14:30N 34°39' E 135°28'0 0.0
2018-Jun-12 13:55N 34°39' E 135°28'0 0.0
2018-Jun-12 13:30N 34°39' E 135°28'0 0.0
2018-Jun-12 12:57N 34°39' E 135°28'0 0.0
2018-Jun-12 12:25N 34°39' E 135°28'0 0.0
2018-Jun-12 11:59N 34°39' E 135°28'2 4.2
2018-Jun-12 11:30N 34°39' E 135°26'0 0.2
2018-Jun-12 11:00N 34°39' E 135°25'1 1.6
2018-Jun-12 10:30N 34°39' E 135°26'1 2.5
2018-Jun-12 09:59N 34°39' E 135°28'0 0.0
2018-Jun-12 09:30N 34°39' E 135°28'0 0.0
2018-Jun-12 08:59N 34°39' E 135°28'0 0.0
2018-Jun-12 08:13N 34°39' E 135°28'0 0.0
2018-Jun-12 07:03N 34°39' E 135°28'0 0.0
2018-Jun-12 05:41N 34°39' E 135°28'0 0.0
2018-Jun-12 05:29N 34°39' E 135°28'0 0.0
2018-Jun-12 04:32N 34°39' E 135°28'0 0.0
2018-Jun-12 04:24N 34°39' E 135°28'0 0.0
2018-Jun-12 04:00N 34°39' E 135°28'0 0.0
2018-Jun-12 03:30N 34°39' E 135°28'0 0.0
2018-Jun-12 02:49N 34°39' E 135°28'0 0.0
2018-Jun-12 02:21N 34°39' E 135°28'0 0.0
2018-Jun-12 01:54N 34°39' E 135°28'0 0.0
2018-Jun-12 01:29N 34°39' E 135°28'0 0.0
2018-Jun-12 00:08N 34°39' E 135°28'0 0.0
2018-Jun-11 23:59N 34°39' E 135°28'0 0.0
2018-Jun-11 23:30N 34°39' E 135°28'0 0.0
2018-Jun-11 23:00N 34°39' E 135°28'0 0.0
2018-Jun-11 22:30N 34°39' E 135°28'0 0.0
2018-Jun-11 21:53N 34°39' E 135°28'3 9.1
2018-Jun-11 21:31N 34°38' E 135°24'2 3.3
2018-Jun-11 21:01N 34°39' E 135°26'2 3.3
2018-Jun-11 20:29N 34°39' E 135°28'0 0.3
2018-Jun-11 19:54N 34°39' E 135°28'0 0.0
2018-Jun-11 19:31N 34°39' E 135°28'0 0.0
2018-Jun-11 19:00N 34°39' E 135°28'0 0.0
2018-Jun-11 18:30N 34°39' E 135°28'0 0.0
2018-Jun-11 18:01N 34°39' E 135°28'0 0.0
2018-Jun-11 17:29N 34°39' E 135°28'0 0.0
2018-Jun-11 17:00N 34°39' E 135°28'0 0.0
2018-Jun-11 16:30N 34°39' E 135°28'0 0.0
2018-Jun-11 16:00N 34°39' E 135°28'0 0.0
2018-Jun-11 15:30N 34°39' E 135°28'0 0.0
2018-Jun-11 15:00N 34°39' E 135°28'0 0.0
2018-Jun-11 14:30N 34°39' E 135°28'0 0.0
2018-Jun-11 13:59N 34°39' E 135°28'2 3.9
2018-Jun-11 13:31N 34°39' E 135°26'1 1.0
2018-Jun-11 13:00N 34°39' E 135°25'1 1.6
2018-Jun-11 12:30N 34°39' E 135°24'0 0.2
2018-Jun-11 12:00N 34°39' E 135°24'3 0.6
2018-Jun-11 06:34N 34°39' E 135°28'1 6.1
2018-Jun-11 06:29N 34°39' E 135°27'3 6.0
2018-Jun-11 06:01N 34°38' E 135°24'0 0.2
2018-Jun-11 05:30N 34°38' E 135°24'2 3.4
2018-Jun-11 05:01N 34°39' E 135°26'2 3.3
2018-Jun-11 04:28N 34°39' E 135°28'0 0.0
2018-Jun-11 03:58N 34°39' E 135°28'0 0.0
2018-Jun-11 03:09N 34°39' E 135°28'0 0.0
2018-Jun-11 03:00N 34°39' E 135°28'0 0.0
2018-Jun-11 02:29N 34°39' E 135°28'0 0.0
2018-Jun-11 02:00N 34°39' E 135°28'0 0.0
2018-Jun-11 01:30N 34°39' E 135°28'0 0.0
2018-Jun-11 00:46N 34°39' E 135°28'0 0.0
2018-Jun-11 00:29N 34°39' E 135°28'0 0.0
2018-Jun-11 00:00N 34°39' E 135°28'0 0.0
2018-Jun-10 23:30N 34°39' E 135°28'0 0.0
2018-Jun-10 23:00N 34°39' E 135°28'0 0.0
2018-Jun-10 22:30N 34°39' E 135°28'0 0.0
2018-Jun-10 22:00N 34°39' E 135°28'0 0.0
2018-Jun-10 21:31N 34°39' E 135°28'0 0.0
2018-Jun-10 21:00N 34°39' E 135°28'0 0.0
2018-Jun-10 20:30N 34°39' E 135°28'0 0.0
2018-Jun-10 20:00N 34°39' E 135°28'0 0.0
2018-Jun-10 19:30N 34°39' E 135°28'0 0.0
2018-Jun-10 19:00N 34°39' E 135°28'0 0.0
2018-Jun-10 18:30N 34°39' E 135°28'0 0.0
2018-Jun-10 18:01N 34°39' E 135°28'0 0.0
2018-Jun-10 17:24N 34°39' E 135°28'0 0.0
2018-Jun-10 17:01N 34°39' E 135°28'0 0.0
2018-Jun-10 16:28N 34°39' E 135°28'0 0.0
2018-Jun-10 16:00N 34°39' E 135°28'0 0.0
2018-Jun-10 15:30N 34°39' E 135°28'0 0.0
2018-Jun-10 14:59N 34°39' E 135°28'0 0.0
2018-Jun-10 14:28N 34°39' E 135°28'0 0.0
2018-Jun-10 13:14N 34°39' E 135°28'0 0.0
2018-Jun-10 12:52N 34°39' E 135°28'0 0.0
2018-Jun-10 12:29N 34°39' E 135°28'0 0.0
2018-Jun-10 12:00N 34°39' E 135°28'0 0.0
2018-Jun-10 11:29N 34°39' E 135°28'0 0.0
2018-Jun-10 10:57N 34°39' E 135°28'0 0.0
2018-Jun-10 10:29N 34°39' E 135°28'0 0.0
2018-Jun-10 10:00N 34°39' E 135°28'0 0.0
2018-Jun-10 09:27N 34°39' E 135°28'0 0.0
2018-Jun-10 09:00N 34°39' E 135°28'0 0.0
2018-Jun-10 08:30N 34°39' E 135°28'0 0.0
2018-Jun-10 07:49N 34°39' E 135°28'0 0.0
2018-Jun-10 07:22N 34°39' E 135°28'0 0.0
2018-Jun-10 06:55N 34°39' E 135°28'0 0.0
2018-Jun-10 06:29N 34°39' E 135°28'  
Track history (hours):
 
Tides and Currents Weather Stations Pressure Air Temp Water Temp Dewpoint Dewpoint Depression Visibility Wind Speed Wind Dir Waves Ship Positions

No 32takemaru

Last reported at 2018-Jun-20 06:00 UTC. Time now 2018-Jun-20 08:58 UTC.
Position N 34°39' E 135°28'.

Length 38 m; draft 2.8 m.

Type: Tug. MMSI: 431000341.

Date/timePositionNaut miles runAvg speedWind from/ knotsBaromVisibWave heightAir tempDewpointWater temp
2018-Jun-20 06:00N 34°39' E 135°28'2 3.9
2018-Jun-20 05:30N 34°39' E 135°25'1 2.0
2018-Jun-20 05:00N 34°39' E 135°24'2 3.8
2018-Jun-20 04:30N 34°39' E 135°26'1 0.3
2018-Jun-19 23:45N 34°39' E 135°28'2 6.9
2018-Jun-19 23:30N 34°39' E 135°26'1 2.3
2018-Jun-19 23:00N 34°39' E 135°24'1 2.2
2018-Jun-19 22:30N 34°40' E 135°25'1 1.3
2018-Jun-19 22:00N 34°39' E 135°24'0 0.2
2018-Jun-19 21:29N 34°39' E 135°24'2 4.1
2018-Jun-19 21:00N 34°39' E 135°27'1 1.9
2018-Jun-19 20:23N 34°39' E 135°28'0 0.0
2018-Jun-19 19:59N 34°39' E 135°28'0 0.0
2018-Jun-19 19:21N 34°39' E 135°28'0 0.0
2018-Jun-19 19:00N 34°39' E 135°28'0 0.0
2018-Jun-19 18:16N 34°39' E 135°28'0 0.0
2018-Jun-19 17:42N 34°39' E 135°28'0 0.0
2018-Jun-19 17:12N 34°39' E 135°28'0 0.0
2018-Jun-19 16:59N 34°39' E 135°28'0 0.0
2018-Jun-19 16:28N 34°39' E 135°28'0 0.0
2018-Jun-19 15:51N 34°39' E 135°28'0 0.0
2018-Jun-19 15:19N 34°39' E 135°28'0 0.0
2018-Jun-19 14:48N 34°39' E 135°28'0 0.0
2018-Jun-19 14:30N 34°39' E 135°28'2 4.1
2018-Jun-19 14:00N 34°39' E 135°26'1 2.4
2018-Jun-19 13:30N 34°39' E 135°24'1 1.1
2018-Jun-19 13:00N 34°39' E 135°25'2 3.2
2018-Jun-19 12:30N 34°39' E 135°27'1 0.7
2018-Jun-19 10:46N 34°39' E 135°28'0 0.0
2018-Jun-19 10:08N 34°39' E 135°28'0 0.0
2018-Jun-19 09:39N 34°39' E 135°28'0 0.0
2018-Jun-19 07:33N 34°39' E 135°28'0 4.9
2018-Jun-19 07:30N 34°39' E 135°28'0 0.0
2018-Jun-18 22:57N 34°39' E 135°28'1 3.0
2018-Jun-18 22:29N 34°39' E 135°26'1 3.0
2018-Jun-18 22:00N 34°39' E 135°24'1 1.8
2018-Jun-18 21:30N 34°39' E 135°26'0 0.3
2018-Jun-18 21:00N 34°39' E 135°26'0 0.1
2018-Jun-18 20:28N 34°39' E 135°26'2 3.1
2018-Jun-18 19:49N 34°39' E 135°28'0 0.0
2018-Jun-18 18:45N 34°39' E 135°28'0 0.0
2018-Jun-18 18:28N 34°39' E 135°28'0 0.0
2018-Jun-18 17:48N 34°39' E 135°28'0 0.0
2018-Jun-18 17:27N 34°39' E 135°28'0 0.0
2018-Jun-18 16:58N 34°39' E 135°28'0 0.0
2018-Jun-18 14:36N 34°39' E 135°28'0 0.0
2018-Jun-18 14:20N 34°39' E 135°28'0 0.0
2018-Jun-18 13:41N 34°39' E 135°28'0 0.0
2018-Jun-18 12:54N 34°39' E 135°28'0 0.5
2018-Jun-18 12:29N 34°39' E 135°28'5 9.4
2018-Jun-18 11:59N 34°36' E 135°23'511.0
2018-Jun-18 11:30N 34°31' E 135°24'0 0.1
2018-Jun-18 10:47N 34°31' E 135°23'0 0.1
2018-Jun-18 07:43N 34°31' E 135°24'1 2.5
2018-Jun-18 07:28N 34°31' E 135°23'0 0.3
2018-Jun-18 06:45N 34°31' E 135°23'1 1.3
2018-Jun-18 06:17N 34°31' E 135°23'2 5.7
2018-Jun-18 05:59N 34°33' E 135°22'0 1.0
2018-Jun-18 05:30N 34°33' E 135°22'3 5.5
2018-Jun-18 05:00N 34°36' E 135°22'4 8.9
2018-Jun-18 04:30N 34°39' E 135°26'2 0.3
2018-Jun-17 23:00N 34°39' E 135°28'2 4.0
2018-Jun-17 22:30N 34°39' E 135°26'1 2.8
2018-Jun-17 22:00N 34°39' E 135°24'1 1.5
2018-Jun-17 21:30N 34°38' E 135°24'1 1.2
2018-Jun-17 21:00N 34°38' E 135°24'3 6.1
2018-Jun-17 20:30N 34°39' E 135°28'0 0.0
2018-Jun-17 08:23N 34°39' E 135°28'2 4.3
2018-Jun-17 08:00N 34°39' E 135°26'1 3.0
2018-Jun-17 07:30N 34°39' E 135°24'0 0.9
2018-Jun-17 07:00N 34°40' E 135°24'0 0.0
2018-Jun-17 06:31N 34°40' E 135°24'0 0.0
2018-Jun-17 06:00N 34°40' E 135°24'0 0.0
2018-Jun-17 05:31N 34°40' E 135°24'0 0.0
2018-Jun-17 05:00N 34°40' E 135°24'0 0.0
2018-Jun-17 04:30N 34°40' E 135°24'1 2.8
2018-Jun-17 04:00N 34°38' E 135°24'2 3.2
2018-Jun-17 03:30N 34°39' E 135°25'2 0.8
2018-Jun-17 00:37N 34°39' E 135°28'0 0.0
2018-Jun-17 00:23N 34°39' E 135°28'0 0.0
2018-Jun-16 23:59N 34°39' E 135°28'0 0.0
2018-Jun-16 23:17N 34°39' E 135°28'0 0.0
2018-Jun-16 22:54N 34°39' E 135°28'0 0.0
2018-Jun-16 21:50N 34°39' E 135°28'0 0.0
2018-Jun-16 21:23N 34°39' E 135°28'0 0.0
2018-Jun-16 16:53N 34°39' E 135°28'2 4.0
2018-Jun-16 16:30N 34°38' E 135°27'1 0.2
2018-Jun-16 13:02N 34°38' E 135°27'1 9.2
2018-Jun-16 12:58N 34°39' E 135°26'2 3.9
2018-Jun-16 12:30N 34°39' E 135°24'1 2.7
2018-Jun-16 12:00N 34°39' E 135°26'2 0.2
2018-Jun-16 03:29N 34°39' E 135°28'0 0.0
2018-Jun-16 02:34N 34°39' E 135°28'0 0.0
2018-Jun-16 02:24N 34°39' E 135°28'0 0.0
2018-Jun-16 01:55N 34°39' E 135°28'0 0.0
2018-Jun-16 01:27N 34°39' E 135°28'0 0.0
2018-Jun-16 00:59N 34°39' E 135°28'0 0.0
2018-Jun-16 00:14N 34°39' E 135°28'0 0.0
2018-Jun-15 23:57N 34°39' E 135°28'0 0.0
2018-Jun-15 23:08N 34°39' E 135°28'1 6.1
2018-Jun-15 22:59N 34°39' E 135°27'2 4.7
2018-Jun-15 22:30N 34°38' E 135°24'1 1.8
2018-Jun-15 22:00N 34°38' E 135°23'0 0.6
2018-Jun-15 21:30N 34°38' E 135°23'4 7.6
2018-Jun-15 20:59N 34°39' E 135°28'0 0.0
2018-Jun-15 01:42N 34°39' E 135°28'210.0
2018-Jun-15 01:30N 34°39' E 135°25'5 9.2
2018-Jun-15 00:59N 34°34' E 135°23'1 2.9
2018-Jun-15 00:31N 34°33' E 135°25'1 2.5
2018-Jun-15 00:00N 34°33' E 135°26'2 3.7
2018-Jun-14 23:28N 34°33' E 135°24'1 2.2
2018-Jun-14 22:59N 34°34' E 135°23'2 3.3
2018-Jun-14 22:30N 34°35' E 135°23'4 8.5
2018-Jun-14 22:00N 34°39' E 135°26'2 2.2
2018-Jun-14 21:15N 34°39' E 135°28'0 0.0
2018-Jun-14 20:45N 34°39' E 135°28'0 0.0
2018-Jun-14 18:38N 34°39' E 135°28'0 0.0
2018-Jun-14 18:21N 34°39' E 135°28'0 0.0
2018-Jun-14 17:55N 34°39' E 135°28'0 0.0
2018-Jun-14 17:26N 34°39' E 135°28'0 0.0
2018-Jun-14 16:57N 34°39' E 135°28'0 0.0
2018-Jun-14 16:30N 34°39' E 135°28'0 0.0
2018-Jun-14 15:26N 34°39' E 135°28'0 0.0
2018-Jun-14 14:59N 34°39' E 135°28'0 0.0
2018-Jun-14 13:48N 34°39' E 135°28'0 0.0
2018-Jun-14 13:16N 34°39' E 135°28'0 0.0
2018-Jun-14 12:53N 34°39' E 135°28'0 0.0
2018-Jun-14 12:07N 34°39' E 135°28'0 0.0
2018-Jun-14 11:59N 34°39' E 135°28'0 0.0
2018-Jun-14 11:20N 34°39' E 135°28'0 0.1
2018-Jun-14 09:04N 34°39' E 135°28'1 8.3
2018-Jun-14 08:59N 34°39' E 135°27'1 2.5
2018-Jun-14 08:30N 34°39' E 135°25'1 2.2
2018-Jun-14 08:00N 34°39' E 135°24'2 3.9
2018-Jun-14 07:30N 34°39' E 135°27'1 0.1
2018-Jun-13 21:49N 34°39' E 135°28'3 9.0
2018-Jun-13 21:30N 34°39' E 135°25'1 1.2
2018-Jun-13 21:00N 34°39' E 135°24'0 0.0
2018-Jun-13 20:30N 34°39' E 135°24'3 0.2
2018-Jun-13 05:48N 34°39' E 135°28'2 7.7
2018-Jun-13 05:29N 34°39' E 135°25'1 2.6
2018-Jun-13 04:59N 34°38' E 135°24'0 0.3
2018-Jun-13 04:30N 34°38' E 135°24'0 0.3
2018-Jun-13 04:00N 34°38' E 135°24'2 4.6
2018-Jun-13 03:30N 34°39' E 135°26'1 0.3
2018-Jun-12 22:54N 34°39' E 135°28'2 4.9
2018-Jun-12 22:30N 34°39' E 135°26'1 2.0
2018-Jun-12 22:00N 34°39' E 135°24'0 0.3
2018-Jun-12 21:30N 34°39' E 135°24'3 6.0
2018-Jun-12 21:00N 34°39' E 135°28'0 0.0
2018-Jun-12 20:29N 34°39' E 135°28'0 0.0
2018-Jun-12 19:57N 34°39' E 135°28'0 0.0
2018-Jun-12 19:30N 34°39' E 135°28'0 0.0
2018-Jun-12 19:00N 34°39' E 135°28'0 0.0
2018-Jun-12 18:30N 34°39' E 135°28'0 0.0
2018-Jun-12 18:00N 34°39' E 135°28'0 0.0
2018-Jun-12 17:29N 34°39' E 135°28'0 0.0
2018-Jun-12 17:00N 34°39' E 135°28'0 0.0
2018-Jun-12 16:30N 34°39' E 135°28'0 0.0
2018-Jun-12 16:00N 34°39' E 135°28'0 0.0
2018-Jun-12 15:30N 34°39' E 135°28'0 0.0
2018-Jun-12 14:58N 34°39' E 135°28'0 0.0
2018-Jun-12 14:30N 34°39' E 135°28'0 0.0
2018-Jun-12 13:55N 34°39' E 135°28'0 0.0
2018-Jun-12 13:30N 34°39' E 135°28'0 0.0
2018-Jun-12 12:57N 34°39' E 135°28'0 0.0
2018-Jun-12 12:25N 34°39' E 135°28'0 0.0
2018-Jun-12 11:59N 34°39' E 135°28'2 4.2
2018-Jun-12 11:30N 34°39' E 135°26'0 0.2
2018-Jun-12 11:00N 34°39' E 135°25'1 1.6
2018-Jun-12 10:30N 34°39' E 135°26'1 2.5
2018-Jun-12 09:59N 34°39' E 135°28'0 0.0
2018-Jun-12 09:30N 34°39' E 135°28'0 0.0
2018-Jun-12 08:59N 34°39' E 135°28'0 0.0
2018-Jun-12 08:13N 34°39' E 135°28'0 0.0
2018-Jun-12 07:03N 34°39' E 135°28'0 0.0
2018-Jun-12 05:41N 34°39' E 135°28'0 0.0
2018-Jun-12 05:29N 34°39' E 135°28'0 0.0
2018-Jun-12 04:32N 34°39' E 135°28'0 0.0
2018-Jun-12 04:24N 34°39' E 135°28'0 0.0
2018-Jun-12 04:00N 34°39' E 135°28'0 0.0
2018-Jun-12 03:30N 34°39' E 135°28'0 0.0
2018-Jun-12 02:49N 34°39' E 135°28'0 0.0
2018-Jun-12 02:21N 34°39' E 135°28'0 0.0
2018-Jun-12 01:54N 34°39' E 135°28'0 0.0
2018-Jun-12 01:29N 34°39' E 135°28'0 0.0
2018-Jun-12 00:08N 34°39' E 135°28'0 0.0
2018-Jun-11 23:59N 34°39' E 135°28'0 0.0
2018-Jun-11 23:30N 34°39' E 135°28'0 0.0
2018-Jun-11 23:00N 34°39' E 135°28'0 0.0
2018-Jun-11 22:30N 34°39' E 135°28'0 0.0
2018-Jun-11 21:53N 34°39' E 135°28'3 9.1
2018-Jun-11 21:31N 34°38' E 135°24'2 3.3
2018-Jun-11 21:01N 34°39' E 135°26'2 3.3
2018-Jun-11 20:29N 34°39' E 135°28'0 0.3
2018-Jun-11 19:54N 34°39' E 135°28'0 0.0
2018-Jun-11 19:31N 34°39' E 135°28'0 0.0
2018-Jun-11 19:00N 34°39' E 135°28'0 0.0
2018-Jun-11 18:30N 34°39' E 135°28'0 0.0
2018-Jun-11 18:01N 34°39' E 135°28'0 0.0
2018-Jun-11 17:29N 34°39' E 135°28'0 0.0
2018-Jun-11 17:00N 34°39' E 135°28'0 0.0
2018-Jun-11 16:30N 34°39' E 135°28'0 0.0
2018-Jun-11 16:00N 34°39' E 135°28'0 0.0
2018-Jun-11 15:30N 34°39' E 135°28'0 0.0
2018-Jun-11 15:00N 34°39' E 135°28'0 0.0
2018-Jun-11 14:30N 34°39' E 135°28'0 0.0
2018-Jun-11 13:59N 34°39' E 135°28'2 3.9
2018-Jun-11 13:31N 34°39' E 135°26'1 1.0
2018-Jun-11 13:00N 34°39' E 135°25'1 1.6
2018-Jun-11 12:30N 34°39' E 135°24'0 0.2
2018-Jun-11 12:00N 34°39' E 135°24'3 0.6
2018-Jun-11 06:34N 34°39' E 135°28'1 6.1
2018-Jun-11 06:29N 34°39' E 135°27'3 6.0
2018-Jun-11 06:01N 34°38' E 135°24'0 0.2
2018-Jun-11 05:30N 34°38' E 135°24'2 3.4
2018-Jun-11 05:01N 34°39' E 135°26'2 3.3
2018-Jun-11 04:28N 34°39' E 135°28'0 0.0
2018-Jun-11 03:58N 34°39' E 135°28'0 0.0
2018-Jun-11 03:09N 34°39' E 135°28'0 0.0
2018-Jun-11 03:00N 34°39' E 135°28'0 0.0
2018-Jun-11 02:29N 34°39' E 135°28'0 0.0
2018-Jun-11 02:00N 34°39' E 135°28'0 0.0
2018-Jun-11 01:30N 34°39' E 135°28'0 0.0
2018-Jun-11 00:46N 34°39' E 135°28'0 0.0
2018-Jun-11 00:29N 34°39' E 135°28'0 0.0
2018-Jun-11 00:00N 34°39' E 135°28'0 0.0
2018-Jun-10 23:30N 34°39' E 135°28'0 0.0
2018-Jun-10 23:00N 34°39' E 135°28'0 0.0
2018-Jun-10 22:30N 34°39' E 135°28'0 0.0
2018-Jun-10 22:00N 34°39' E 135°28'0 0.0
2018-Jun-10 21:31N 34°39' E 135°28'0 0.0
2018-Jun-10 21:00N 34°39' E 135°28'0 0.0
2018-Jun-10 20:30N 34°39' E 135°28'0 0.0
2018-Jun-10 20:00N 34°39' E 135°28'0 0.0
2018-Jun-10 19:30N 34°39' E 135°28'0 0.0
2018-Jun-10 19:00N 34°39' E 135°28'0 0.0
2018-Jun-10 18:30N 34°39' E 135°28'0 0.0
2018-Jun-10 18:01N 34°39' E 135°28'0 0.0
2018-Jun-10 17:24N 34°39' E 135°28'0 0.0
2018-Jun-10 17:01N 34°39' E 135°28'0 0.0
2018-Jun-10 16:28N 34°39' E 135°28'0 0.0
2018-Jun-10 16:00N 34°39' E 135°28'0 0.0
2018-Jun-10 15:30N 34°39' E 135°28'0 0.0
2018-Jun-10 14:59N 34°39' E 135°28'0 0.0
2018-Jun-10 14:28N 34°39' E 135°28'0 0.0
2018-Jun-10 13:14N 34°39' E 135°28'0 0.0
2018-Jun-10 12:52N 34°39' E 135°28'0 0.0
2018-Jun-10 12:29N 34°39' E 135°28'0 0.0
2018-Jun-10 12:00N 34°39' E 135°28'0 0.0
2018-Jun-10 11:29N 34°39' E 135°28'0 0.0
2018-Jun-10 10:57N 34°39' E 135°28'0 0.0
2018-Jun-10 10:29N 34°39' E 135°28'0 0.0
2018-Jun-10 10:00N 34°39' E 135°28'0 0.0
2018-Jun-10 09:27N 34°39' E 135°28'0 0.0
2018-Jun-10 09:00N 34°39' E 135°28'0 0.0
2018-Jun-10 08:30N 34°39' E 135°28'0 0.0
2018-Jun-10 07:49N 34°39' E 135°28'0 0.0
2018-Jun-10 07:22N 34°39' E 135°28'0 0.0
2018-Jun-10 06:55N 34°39' E 135°28'0 0.0
2018-Jun-10 06:29N 34°39' E 135°28'  

Dump ship's entire track history